Asian Infinity — 3EVP3 — position and weather

sailwx.info

Track history (hours):
 
Tides and Currents Weather Stations Pressure Air Temp Water Temp Dewpoint Dewpoint Depression Visibility Wind Speed Wind Dir Waves Ship Positions

Asian Infinity

Last reported at 2015-Mar-27 14:28 UTC. Time now 2015-Mar-28 05:16 UTC.
Position N 35°35' E 124°31'.

Length 104 m; draft 7.1 m.

Type: Cargo ship. MMSI: 351868000.

Date/timePositionNaut miles runAvg speedWind from/ knotsBaromVisibWave heightAir tempDewpointWater temp
2015-Mar-27 14:28N 35°35' E 124°31'7911.4
2015-Mar-27 07:29N 36°40' E 123°35'1111.6
2015-Mar-27 06:33N 36°49' E 123°27'1111.2
2015-Mar-27 05:32N 36°58' E 123°18'9 9.7
2015-Mar-27 04:33N 37°06' E 123°11'1210.2
2015-Mar-27 03:24N 37°15' E 123°03'8 9.7
2015-Mar-27 02:33N 37°22' E 122°57'11 9.5
2015-Mar-27 01:25N 37°29' E 122°47'910.1
2015-Mar-27 00:33N 37°37' E 122°41'1010.1
2015-Mar-26 23:33N 37°42' E 122°30'1111.0
2015-Mar-26 22:32N 37°44' E 122°16'1111.3
2015-Mar-26 21:33N 37°45' E 122°02'1211.0
2015-Mar-26 20:25N 37°47' E 121°47'910.6
2015-Mar-26 19:33N 37°50' E 121°35'1110.5
2015-Mar-26 18:33N 37°53' E 121°23'168 4.1
2015-Mar-25 01:31N 38°55' E 118°03'1010.8
2015-Mar-25 00:33N 38°58' E 117°50'4 3.8
2015-Mar-24 23:31N 38°59' E 117°45'0 0.0
2015-Mar-24 22:31N 38°59' E 117°45'0 0.0
2015-Mar-24 21:25N 38°59' E 117°45'0 0.1
2015-Mar-24 20:31N 38°59' E 117°45'0 0.0
2015-Mar-24 19:25N 38°59' E 117°45'0 0.0
2015-Mar-24 18:25N 38°59' E 117°45'0 0.0
2015-Mar-24 17:31N 38°59' E 117°45'0 0.0
2015-Mar-24 16:31N 38°59' E 117°45'0 0.0
2015-Mar-24 15:25N 38°59' E 117°45'0 0.0
2015-Mar-24 14:31N 38°59' E 117°45'0 0.0
2015-Mar-24 13:25N 38°59' E 117°45'0 0.0
2015-Mar-24 12:31N 38°59' E 117°45'0 0.0
2015-Mar-24 11:25N 38°59' E 117°45'0 0.2
2015-Mar-24 10:33N 38°59' E 117°46'9 9.0
2015-Mar-24 09:33N 38°57' E 117°57'7 1.3
2015-Mar-24 04:10N 38°57' E 118°06'0 0.0
2015-Mar-24 00:16N 38°57' E 118°06'0 0.0
2015-Mar-23 23:16N 38°57' E 118°06'0 0.0
2015-Mar-23 14:04N 38°57' E 118°06'0 0.0
2015-Mar-23 13:28N 38°57' E 118°06'0 0.0
2015-Mar-23 12:28N 38°57' E 118°06'0 0.0
2015-Mar-23 11:22N 38°57' E 118°06'0 0.1
2015-Mar-23 09:28N 38°57' E 118°06'0 0.0
2015-Mar-22 02:28N 38°57' E 118°06'0 0.0
2015-Mar-20 19:22N 38°57' E 118°06'0 0.1
2015-Mar-20 18:22N 38°57' E 118°06'0 0.0
2015-Mar-20 16:04N 38°57' E 118°06'0 0.0
2015-Mar-20 15:16N 38°57' E 118°06'0 0.0
2015-Mar-20 12:10N 38°57' E 118°06'0 0.0
2015-Mar-20 10:10N 38°57' E 118°06'0 0.0
2015-Mar-20 07:22N 38°57' E 118°06'0 0.0
2015-Mar-20 02:28N 38°57' E 118°06'0 0.1
2015-Mar-20 00:28N 38°57' E 118°06'0 0.0
2015-Mar-19 10:10N 38°57' E 118°06'0 0.0
2015-Mar-19 09:04N 38°57' E 118°06'0 0.0
2015-Mar-19 05:04N 38°57' E 118°06'0 0.0
2015-Mar-19 03:04N 38°57' E 118°06'0 0.1
2015-Mar-19 01:28N 38°57' E 118°06'4 4.3
2015-Mar-19 00:33N 38°55' E 118°11'51 2.8
2015-Mar-18 06:29N 38°47' E 119°16'11110.2
2015-Mar-17 19:33N 38°33' E 121°38'8 8.2
2015-Mar-17 18:33N 38°40' E 121°43'1010.2
2015-Mar-17 17:33N 38°50' E 121°45'  
Track history (hours):
 
Tides and Currents Weather Stations Pressure Air Temp Water Temp Dewpoint Dewpoint Depression Visibility Wind Speed Wind Dir Waves Ship Positions

Asian Infinity

Last reported at 2015-Mar-27 14:28 UTC. Time now 2015-Mar-28 05:16 UTC.
Position N 35°35' E 124°31'.

Length 104 m; draft 7.1 m.

Type: Cargo ship. MMSI: 351868000.

Date/timePositionNaut miles runAvg speedWind from/ knotsBaromVisibWave heightAir tempDewpointWater temp
2015-Mar-27 14:28N 35°35' E 124°31'7911.4
2015-Mar-27 07:29N 36°40' E 123°35'1111.6
2015-Mar-27 06:33N 36°49' E 123°27'1111.2
2015-Mar-27 05:32N 36°58' E 123°18'9 9.7
2015-Mar-27 04:33N 37°06' E 123°11'1210.2
2015-Mar-27 03:24N 37°15' E 123°03'8 9.7
2015-Mar-27 02:33N 37°22' E 122°57'11 9.5
2015-Mar-27 01:25N 37°29' E 122°47'910.1
2015-Mar-27 00:33N 37°37' E 122°41'1010.1
2015-Mar-26 23:33N 37°42' E 122°30'1111.0
2015-Mar-26 22:32N 37°44' E 122°16'1111.3
2015-Mar-26 21:33N 37°45' E 122°02'1211.0
2015-Mar-26 20:25N 37°47' E 121°47'910.6
2015-Mar-26 19:33N 37°50' E 121°35'1110.5
2015-Mar-26 18:33N 37°53' E 121°23'168 4.1
2015-Mar-25 01:31N 38°55' E 118°03'1010.8
2015-Mar-25 00:33N 38°58' E 117°50'4 3.8
2015-Mar-24 23:31N 38°59' E 117°45'0 0.0
2015-Mar-24 22:31N 38°59' E 117°45'0 0.0
2015-Mar-24 21:25N 38°59' E 117°45'0 0.1
2015-Mar-24 20:31N 38°59' E 117°45'0 0.0
2015-Mar-24 19:25N 38°59' E 117°45'0 0.0
2015-Mar-24 18:25N 38°59' E 117°45'0 0.0
2015-Mar-24 17:31N 38°59' E 117°45'0 0.0
2015-Mar-24 16:31N 38°59' E 117°45'0 0.0
2015-Mar-24 15:25N 38°59' E 117°45'0 0.0
2015-Mar-24 14:31N 38°59' E 117°45'0 0.0
2015-Mar-24 13:25N 38°59' E 117°45'0 0.0
2015-Mar-24 12:31N 38°59' E 117°45'0 0.0
2015-Mar-24 11:25N 38°59' E 117°45'0 0.2
2015-Mar-24 10:33N 38°59' E 117°46'9 9.0
2015-Mar-24 09:33N 38°57' E 117°57'7 1.3
2015-Mar-24 04:10N 38°57' E 118°06'0 0.0
2015-Mar-24 00:16N 38°57' E 118°06'0 0.0
2015-Mar-23 23:16N 38°57' E 118°06'0 0.0
2015-Mar-23 14:04N 38°57' E 118°06'0 0.0
2015-Mar-23 13:28N 38°57' E 118°06'0 0.0
2015-Mar-23 12:28N 38°57' E 118°06'0 0.0
2015-Mar-23 11:22N 38°57' E 118°06'0 0.1
2015-Mar-23 09:28N 38°57' E 118°06'0 0.0
2015-Mar-22 02:28N 38°57' E 118°06'0 0.0
2015-Mar-20 19:22N 38°57' E 118°06'0 0.1
2015-Mar-20 18:22N 38°57' E 118°06'0 0.0
2015-Mar-20 16:04N 38°57' E 118°06'0 0.0
2015-Mar-20 15:16N 38°57' E 118°06'0 0.0
2015-Mar-20 12:10N 38°57' E 118°06'0 0.0
2015-Mar-20 10:10N 38°57' E 118°06'0 0.0
2015-Mar-20 07:22N 38°57' E 118°06'0 0.0
2015-Mar-20 02:28N 38°57' E 118°06'0 0.1
2015-Mar-20 00:28N 38°57' E 118°06'0 0.0
2015-Mar-19 10:10N 38°57' E 118°06'0 0.0
2015-Mar-19 09:04N 38°57' E 118°06'0 0.0
2015-Mar-19 05:04N 38°57' E 118°06'0 0.0
2015-Mar-19 03:04N 38°57' E 118°06'0 0.1
2015-Mar-19 01:28N 38°57' E 118°06'4 4.3
2015-Mar-19 00:33N 38°55' E 118°11'51 2.8
2015-Mar-18 06:29N 38°47' E 119°16'11110.2
2015-Mar-17 19:33N 38°33' E 121°38'8 8.2
2015-Mar-17 18:33N 38°40' E 121°43'1010.2
2015-Mar-17 17:33N 38°50' E 121°45'  

Dump ship's entire track history